sensor_id;sensor_type;location;lat;lon;timestamp;pressure;altitude;pressure_sealevel;temperature;humidity
76627;BME280;65519;53.230;10.390;2023-02-03T00:00:53;101464.25;;;4.16;90.46
76627;BME280;65519;53.230;10.390;2023-02-03T00:03:18;101460.09;;;4.13;90.61
76627;BME280;65519;53.230;10.390;2023-02-03T00:05:44;101448.88;;;4.03;91.13
76627;BME280;65519;53.230;10.390;2023-02-03T00:08:12;101439.53;;;4.32;90.81
76627;BME280;65519;53.230;10.390;2023-02-03T00:10:38;101427.50;;;4.15;90.92
76627;BME280;65519;53.230;10.390;2023-02-03T00:13:04;101427.91;;;4.31;89.97
76627;BME280;65519;53.230;10.390;2023-02-03T00:15:30;101425.22;;;4.31;90.61
76627;BME280;65519;53.230;10.390;2023-02-03T00:17:55;101427.50;;;4.21;91.09
76627;BME280;65519;53.230;10.390;2023-02-03T00:20:21;101420.00;;;4.23;91.40
76627;BME280;65519;53.230;10.390;2023-02-03T00:22:47;101416.09;;;4.19;91.81
76627;BME280;65519;53.230;10.390;2023-02-03T00:25:12;101420.44;;;4.20;92.23
76627;BME280;65519;53.230;10.390;2023-02-03T00:27:38;101410.88;;;4.31;91.94
76627;BME280;65519;53.230;10.390;2023-02-03T00:30:03;101415.84;;;4.34;92.01
76627;BME280;65519;53.230;10.390;2023-02-03T00:32:29;101409.34;;;4.61;91.75
76627;BME280;65519;53.230;10.390;2023-02-03T00:34:54;101403.09;;;4.67;91.21
76627;BME280;65519;53.230;10.390;2023-02-03T00:37:20;101403.06;;;4.81;91.25
76627;BME280;65519;53.230;10.390;2023-02-03T00:39:47;101400.97;;;4.83;91.49
76627;BME280;65519;53.230;10.390;2023-02-03T00:42:13;101381.19;;;4.95;90.69
76627;BME280;65519;53.230;10.390;2023-02-03T00:44:38;101376.97;;;4.99;91.67
76627;BME280;65519;53.230;10.390;2023-02-03T00:47:04;101375.25;;;5.11;91.79
76627;BME280;65519;53.230;10.390;2023-02-03T00:49:29;101377.69;;;5.26;90.88
76627;BME280;65519;53.230;10.390;2023-02-03T00:51:54;101371.09;;;5.47;90.14
76627;BME280;65519;53.230;10.390;2023-02-03T00:54:20;101368.28;;;4.97;92.34
76627;BME280;65519;53.230;10.390;2023-02-03T00:56:45;101363.38;;;5.75;90.32
76627;BME280;65519;53.230;10.390;2023-02-03T00:59:11;101362.19;;;5.96;88.81
76627;BME280;65519;53.230;10.390;2023-02-03T01:01:36;101358.00;;;5.44;90.70
76627;BME280;65519;53.230;10.390;2023-02-03T01:04:02;101363.13;;;5.27;92.24
76627;BME280;65519;53.230;10.390;2023-02-03T01:06:28;101372.69;;;5.30;92.81
76627;BME280;65519;53.230;10.390;2023-02-03T01:08:53;101366.31;;;5.49;92.93
76627;BME280;65519;53.230;10.390;2023-02-03T01:11:28;101360.16;;;5.85;91.69
76627;BME280;65519;53.230;10.390;2023-02-03T01:13:55;101344.63;;;5.80;91.48
76627;BME280;65519;53.230;10.390;2023-02-03T01:16:22;101368.72;;;5.57;92.47
76627;BME280;65519;53.230;10.390;2023-02-03T01:18:49;101356.72;;;6.03;91.16
76627;BME280;65519;53.230;10.390;2023-02-03T01:21:25;101352.81;;;6.17;90.45
76627;BME280;65519;53.230;10.390;2023-02-03T01:23:50;101339.41;;;5.79;92.14
76627;BME280;65519;53.230;10.390;2023-02-03T01:26:19;101328.81;;;5.77;92.81
76627;BME280;65519;53.230;10.390;2023-02-03T01:28:58;101317.13;;;6.45;91.17
76627;BME280;65519;53.230;10.390;2023-02-03T01:31:32;101310.84;;;6.08;92.33
76627;BME280;65519;53.230;10.390;2023-02-03T01:34:05;101299.16;;;6.32;92.04
76627;BME280;65519;53.230;10.390;2023-02-03T01:36:32;101316.69;;;6.48;92.13
76627;BME280;65519;53.230;10.390;2023-02-03T01:38:58;101304.91;;;6.54;91.97
76627;BME280;65519;53.230;10.390;2023-02-03T01:41:36;101282.31;;;6.60;91.88
76627;BME280;65519;53.230;10.390;2023-02-03T01:47:03;101276.88;;;6.78;90.93
76627;BME280;65519;53.230;10.390;2023-02-03T01:49:34;101264.13;;;7.09;89.68
76627;BME280;65519;53.230;10.390;2023-02-03T01:52:01;101265.44;;;7.18;89.26
76627;BME280;65519;53.230;10.390;2023-02-03T01:54:29;101254.63;;;7.29;88.06
76627;BME280;65519;53.230;10.390;2023-02-03T01:57:00;101236.50;;;7.42;87.48
76627;BME280;65519;53.230;10.390;2023-02-03T01:59:29;101232.13;;;7.52;88.25
76627;BME280;65519;53.230;10.390;2023-02-03T02:01:56;101229.59;;;7.04;89.11
76627;BME280;65519;53.230;10.390;2023-02-03T02:04:25;101216.38;;;6.96;89.62
76627;BME280;65519;53.230;10.390;2023-02-03T02:06:57;101221.47;;;7.16;88.88
76627;BME280;65519;53.230;10.390;2023-02-03T02:09:24;101209.78;;;7.15;88.35
76627;BME280;65519;53.230;10.390;2023-02-03T02:11:50;101217.03;;;7.45;88.13
76627;BME280;65519;53.230;10.390;2023-02-03T02:14:16;101218.66;;;7.11;89.03
76627;BME280;65519;53.230;10.390;2023-02-03T02:17:01;101238.84;;;7.50;87.83
76627;BME280;65519;53.230;10.390;2023-02-03T02:22:52;101252.63;;;7.13;89.85
76627;BME280;65519;53.230;10.390;2023-02-03T02:34:13;101225.97;;;7.10;88.66
76627;BME280;65519;53.230;10.390;2023-02-03T02:42:03;101205.69;;;7.13;89.00
76627;BME280;65519;53.230;10.390;2023-02-03T02:44:34;101228.22;;;7.13;89.08
76627;BME280;65519;53.230;10.390;2023-02-03T02:47:22;101213.47;;;7.09;89.02
76627;BME280;65519;53.230;10.390;2023-02-03T02:50:02;101217.00;;;7.10;89.81
76627;BME280;65519;53.230;10.390;2023-02-03T02:52:31;101197.19;;;7.09;88.89
76627;BME280;65519;53.230;10.390;2023-02-03T02:55:05;101194.84;;;7.13;88.05
76627;BME280;65519;53.230;10.390;2023-02-03T02:57:33;101188.59;;;7.12;88.08
76627;BME280;65519;53.230;10.390;2023-02-03T03:00:00;101189.16;;;7.14;88.38
76627;BME280;65519;53.230;10.390;2023-02-03T03:02:33;101188.59;;;7.12;88.37
76627;BME280;65519;53.230;10.390;2023-02-03T03:05:00;101196.16;;;7.22;87.29
76627;BME280;65519;53.230;10.390;2023-02-03T03:07:28;101201.81;;;7.20;88.22
76627;BME280;65519;53.230;10.390;2023-02-03T03:10:02;101200.59;;;7.16;87.80
76627;BME280;65519;53.230;10.390;2023-02-03T03:12:31;101199.22;;;7.14;88.72
76627;BME280;65519;53.230;10.390;2023-02-03T03:15:03;101191.44;;;7.29;87.87
76627;BME280;65519;53.230;10.390;2023-02-03T03:17:41;101188.34;;;7.25;88.88
76627;BME280;65519;53.230;10.390;2023-02-03T03:20:11;101186.13;;;7.34;88.16
76627;BME280;65519;53.230;10.390;2023-02-03T03:22:44;101160.69;;;7.35;87.66
76627;BME280;65519;53.230;10.390;2023-02-03T03:25:16;101176.34;;;7.45;86.74
76627;BME280;65519;53.230;10.390;2023-02-03T03:27:50;101166.31;;;7.22;88.05
76627;BME280;65519;53.230;10.390;2023-02-03T03:30:31;101161.50;;;7.12;88.92
76627;BME280;65519;53.230;10.390;2023-02-03T03:32:58;101137.56;;;7.09;87.92
76627;BME280;65519;53.230;10.390;2023-02-03T03:35:29;101150.75;;;7.17;87.76
76627;BME280;65519;53.230;10.390;2023-02-03T03:38:05;101138.47;;;7.15;88.52
76627;BME280;65519;53.230;10.390;2023-02-03T03:40:37;101136.38;;;7.17;88.04
76627;BME280;65519;53.230;10.390;2023-02-03T03:43:14;101138.25;;;7.16;87.74
76627;BME280;65519;53.230;10.390;2023-02-03T03:49:02;101130.84;;;7.23;87.41
76627;BME280;65519;53.230;10.390;2023-02-03T03:53:55;101133.19;;;7.31;87.41
76627;BME280;65519;53.230;10.390;2023-02-03T03:56:29;101108.88;;;7.37;86.64
76627;BME280;65519;53.230;10.390;2023-02-03T03:58:58;101100.19;;;7.35;87.36
76627;BME280;65519;53.230;10.390;2023-02-03T04:01:25;101102.31;;;7.32;86.93
76627;BME280;65519;53.230;10.390;2023-02-03T04:03:55;101099.00;;;7.30;86.47
76627;BME280;65519;53.230;10.390;2023-02-03T04:06:22;101097.22;;;7.36;86.37
76627;BME280;65519;53.230;10.390;2023-02-03T04:08:48;101100.03;;;7.41;86.91
76627;BME280;65519;53.230;10.390;2023-02-03T04:11:13;101098.75;;;7.32;86.94
76627;BME280;65519;53.230;10.390;2023-02-03T04:13:58;101100.66;;;7.31;87.81
76627;BME280;65519;53.230;10.390;2023-02-03T04:16:24;101112.09;;;7.33;87.51
76627;BME280;65519;53.230;10.390;2023-02-03T04:18:49;101094.75;;;7.35;87.81
76627;BME280;65519;53.230;10.390;2023-02-03T04:21:14;101103.44;;;7.37;86.70
76627;BME280;65519;53.230;10.390;2023-02-03T04:23:40;101104.63;;;7.41;86.96
76627;BME280;65519;53.230;10.390;2023-02-03T04:26:05;101090.94;;;7.36;86.42
76627;BME280;65519;53.230;10.390;2023-02-03T04:28:30;101091.31;;;7.39;87.41
76627;BME280;65519;53.230;10.390;2023-02-03T04:30:59;101087.69;;;7.33;87.28
76627;BME280;65519;53.230;10.390;2023-02-03T04:33:24;101061.72;;;7.38;87.07
76627;BME280;65519;53.230;10.390;2023-02-03T04:35:50;101040.03;;;7.38;86.13
76627;BME280;65519;53.230;10.390;2023-02-03T04:38:15;101032.94;;;7.37;87.11
76627;BME280;65519;53.230;10.390;2023-02-03T04:40:40;101040.53;;;7.35;87.47
76627;BME280;65519;53.230;10.390;2023-02-03T04:43:07;101029.09;;;7.21;87.66
76627;BME280;65519;53.230;10.390;2023-02-03T04:45:32;101037.09;;;7.27;87.36
76627;BME280;65519;53.230;10.390;2023-02-03T04:47:58;101039.34;;;7.30;87.68
76627;BME280;65519;53.230;10.390;2023-02-03T04:50:23;101033.91;;;7.30;87.44
76627;BME280;65519;53.230;10.390;2023-02-03T04:52:48;101026.25;;;7.27;87.88
76627;BME280;65519;53.230;10.390;2023-02-03T04:55:14;101051.09;;;7.36;87.82
76627;BME280;65519;53.230;10.390;2023-02-03T04:57:39;101052.06;;;7.30;88.09
76627;BME280;65519;53.230;10.390;2023-02-03T05:00:05;101049.00;;;7.26;88.38
76627;BME280;65519;53.230;10.390;2023-02-03T05:02:31;101048.19;;;7.26;87.84
76627;BME280;65519;53.230;10.390;2023-02-03T05:04:56;101043.56;;;7.26;88.30
76627;BME280;65519;53.230;10.390;2023-02-03T05:07:21;101036.25;;;7.27;87.66
76627;BME280;65519;53.230;10.390;2023-02-03T05:09:47;101035.78;;;7.30;88.39
76627;BME280;65519;53.230;10.390;2023-02-03T05:12:12;101034.53;;;7.21;87.78
76627;BME280;65519;53.230;10.390;2023-02-03T05:14:37;101047.84;;;7.22;87.85
76627;BME280;65519;53.230;10.390;2023-02-03T05:17:03;101050.56;;;7.22;88.90
76627;BME280;65519;53.230;10.390;2023-02-03T05:19:28;101045.38;;;7.21;89.04
76627;BME280;65519;53.230;10.390;2023-02-03T05:21:54;101035.69;;;7.25;88.28
76627;BME280;65519;53.230;10.390;2023-02-03T05:24:19;101018.13;;;7.27;88.29
76627;BME280;65519;53.230;10.390;2023-02-03T05:26:44;100993.16;;;7.14;89.00
76627;BME280;65519;53.230;10.390;2023-02-03T05:29:10;101020.72;;;7.22;89.06
76627;BME280;65519;53.230;10.390;2023-02-03T05:31:36;101005.75;;;7.20;88.98
76627;BME280;65519;53.230;10.390;2023-02-03T05:34:01;100969.09;;;7.17;89.43
76627;BME280;65519;53.230;10.390;2023-02-03T05:36:26;100977.69;;;7.14;89.69
76627;BME280;65519;53.230;10.390;2023-02-03T05:38:52;100977.13;;;7.12;89.68
76627;BME280;65519;53.230;10.390;2023-02-03T05:41:17;100985.50;;;7.11;90.18
76627;BME280;65519;53.230;10.390;2023-02-03T05:44:01;100970.38;;;7.26;89.99
76627;BME280;65519;53.230;10.390;2023-02-03T05:46:27;100976.09;;;7.42;88.73
76627;BME280;65519;53.230;10.390;2023-02-03T05:48:52;100969.03;;;7.41;88.60
76627;BME280;65519;53.230;10.390;2023-02-03T05:51:17;100976.53;;;7.50;88.19
76627;BME280;65519;53.230;10.390;2023-02-03T05:53:43;100971.28;;;7.44;88.50
76627;BME280;65519;53.230;10.390;2023-02-03T05:56:08;100957.19;;;7.47;87.80
76627;BME280;65519;53.230;10.390;2023-02-03T05:58:34;100955.06;;;7.49;88.02
76627;BME280;65519;53.230;10.390;2023-02-03T06:00:59;100959.00;;;7.41;87.87
76627;BME280;65519;53.230;10.390;2023-02-03T06:03:25;100940.31;;;7.28;88.55
76627;BME280;65519;53.230;10.390;2023-02-03T06:05:50;100937.00;;;7.26;89.23
76627;BME280;65519;53.230;10.390;2023-02-03T06:08:15;100942.09;;;7.22;88.24
76627;BME280;65519;53.230;10.390;2023-02-03T06:10:41;100929.44;;;7.28;88.99
76627;BME280;65519;53.230;10.390;2023-02-03T06:13:08;100937.50;;;7.23;88.75
76627;BME280;65519;53.230;10.390;2023-02-03T06:15:34;100935.94;;;7.27;88.44
76627;BME280;65519;53.230;10.390;2023-02-03T06:17:59;100933.22;;;7.27;88.75
76627;BME280;65519;53.230;10.390;2023-02-03T06:20:24;100946.47;;;7.23;89.00
76627;BME280;65519;53.230;10.390;2023-02-03T06:22:50;100924.78;;;7.23;88.25
76627;BME280;65519;53.230;10.390;2023-02-03T06:25:15;100920.84;;;7.31;87.52
76627;BME280;65519;53.230;10.390;2023-02-03T06:27:40;100921.44;;;7.33;87.92
76627;BME280;65519;53.230;10.390;2023-02-03T06:30:07;100935.56;;;7.35;87.74
76627;BME280;65519;53.230;10.390;2023-02-03T06:32:32;100933.66;;;7.36;88.39
76627;BME280;65519;53.230;10.390;2023-02-03T06:34:58;100926.03;;;7.32;88.35
76627;BME280;65519;53.230;10.390;2023-02-03T06:37:23;100929.88;;;7.37;87.89
76627;BME280;65519;53.230;10.390;2023-02-03T06:39:49;100903.28;;;7.33;88.09
76627;BME280;65519;53.230;10.390;2023-02-03T06:42:14;100913.47;;;7.43;88.33
76627;BME280;65519;53.230;10.390;2023-02-03T06:44:39;100926.03;;;7.32;89.03
76627;BME280;65519;53.230;10.390;2023-02-03T06:47:05;100921.19;;;7.35;88.54
76627;BME280;65519;53.230;10.390;2023-02-03T06:49:30;100922.97;;;7.29;89.39
76627;BME280;65519;53.230;10.390;2023-02-03T06:51:55;100916.25;;;7.31;88.85
76627;BME280;65519;53.230;10.390;2023-02-03T06:54:21;100924.84;;;7.28;89.39
76627;BME280;65519;53.230;10.390;2023-02-03T06:56:46;100917.19;;;7.25;90.03
76627;BME280;65519;53.230;10.390;2023-02-03T06:59:12;100901.75;;;7.26;90.78
76627;BME280;65519;53.230;10.390;2023-02-03T07:01:37;100896.47;;;7.19;90.65
76627;BME280;65519;53.230;10.390;2023-02-03T07:04:03;100910.16;;;7.24;90.04
76627;BME280;65519;53.230;10.390;2023-02-03T07:06:29;100896.31;;;7.26;89.83
76627;BME280;65519;53.230;10.390;2023-02-03T07:08:58;100904.72;;;7.24;90.51
76627;BME280;65519;53.230;10.390;2023-02-03T07:11:24;100894.13;;;7.23;90.27
76627;BME280;65519;53.230;10.390;2023-02-03T07:13:50;100901.44;;;7.22;90.39
76627;BME280;65519;53.230;10.390;2023-02-03T07:16:15;100887.13;;;7.27;90.37
76627;BME280;65519;53.230;10.390;2023-02-03T07:18:41;100886.91;;;7.28;90.66
76627;BME280;65519;53.230;10.390;2023-02-03T07:21:06;100872.19;;;7.24;90.50
76627;BME280;65519;53.230;10.390;2023-02-03T07:23:32;100885.34;;;7.32;90.50
76627;BME280;65519;53.230;10.390;2023-02-03T07:26:02;100906.06;;;7.39;89.72
76627;BME280;65519;53.230;10.390;2023-02-03T07:28:29;100891.78;;;7.43;89.64
76627;BME280;65519;53.230;10.390;2023-02-03T07:30:55;100886.69;;;7.47;89.88
76627;BME280;65519;53.230;10.390;2023-02-03T07:33:20;100892.09;;;7.47;90.75
76627;BME280;65519;53.230;10.390;2023-02-03T07:35:56;100893.28;;;7.51;89.50
76627;BME280;65519;53.230;10.390;2023-02-03T07:38:26;100880.28;;;7.53;90.49
76627;BME280;65519;53.230;10.390;2023-02-03T07:40:56;100885.72;;;7.53;89.30
76627;BME280;65519;53.230;10.390;2023-02-03T07:43:22;100869.44;;;7.53;89.64
76627;BME280;65519;53.230;10.390;2023-02-03T07:45:47;100886.06;;;7.56;89.18
76627;BME280;65519;53.230;10.390;2023-02-03T07:48:12;100872.75;;;7.55;89.65
76627;BME280;65519;53.230;10.390;2023-02-03T07:50:39;100874.63;;;7.54;90.02
76627;BME280;65519;53.230;10.390;2023-02-03T07:53:05;100858.53;;;7.64;89.33
76627;BME280;65519;53.230;10.390;2023-02-03T07:55:33;100889.69;;;7.62;90.11
76627;BME280;65519;53.230;10.390;2023-02-03T07:57:58;100868.44;;;7.59;89.55
76627;BME280;65519;53.230;10.390;2023-02-03T08:00:24;100847.75;;;7.53;89.90
76627;BME280;65519;53.230;10.390;2023-02-03T08:02:50;100852.19;;;7.59;89.77
76627;BME280;65519;53.230;10.390;2023-02-03T08:05:17;100867.97;;;7.62;90.06
76627;BME280;65519;53.230;10.390;2023-02-03T08:07:43;100861.72;;;7.61;89.76
76627;BME280;65519;53.230;10.390;2023-02-03T08:10:10;100860.41;;;7.64;89.83
76627;BME280;65519;53.230;10.390;2023-02-03T08:12:36;100864.19;;;7.63;90.10
76627;BME280;65519;53.230;10.390;2023-02-03T08:15:02;100858.28;;;7.66;90.48
76627;BME280;65519;53.230;10.390;2023-02-03T08:17:28;100867.50;;;7.65;89.80
76627;BME280;65519;53.230;10.390;2023-02-03T08:19:53;100862.88;;;7.65;89.84
76627;BME280;65519;53.230;10.390;2023-02-03T08:22:18;100865.91;;;7.69;90.25
76627;BME280;65519;53.230;10.390;2023-02-03T08:24:45;100873.56;;;7.72;89.45
76627;BME280;65519;53.230;10.390;2023-02-03T08:27:19;100871.91;;;7.71;90.27
76627;BME280;65519;53.230;10.390;2023-02-03T08:29:45;100872.97;;;7.70;90.31
76627;BME280;65519;53.230;10.390;2023-02-03T08:32:16;100869.78;;;7.73;89.98
76627;BME280;65519;53.230;10.390;2023-02-03T08:34:42;100877.34;;;7.71;90.61
76627;BME280;65519;53.230;10.390;2023-02-03T08:37:09;100874.06;;;7.69;90.11
76627;BME280;65519;53.230;10.390;2023-02-03T08:39:35;100871.09;;;7.70;90.11
76627;BME280;65519;53.230;10.390;2023-02-03T08:42:00;100871.44;;;7.74;90.30
76627;BME280;65519;53.230;10.390;2023-02-03T08:44:28;100881.13;;;7.70;94.47
76627;BME280;65519;53.230;10.390;2023-02-03T08:46:54;100879.47;;;7.69;90.65
76627;BME280;65519;53.230;10.390;2023-02-03T08:49:20;100895.28;;;7.72;90.09
76627;BME280;65519;53.230;10.390;2023-02-03T08:51:46;100957.56;;;7.79;90.97
76627;BME280;65519;53.230;10.390;2023-02-03T08:54:13;100957.69;;;7.72;90.97
76627;BME280;65519;53.230;10.390;2023-02-03T08:56:39;100955.06;;;7.49;89.54
76627;BME280;65519;53.230;10.390;2023-02-03T08:59:05;100981.06;;;7.45;87.48
76627;BME280;65519;53.230;10.390;2023-02-03T09:01:30;100979.53;;;7.37;85.95
76627;BME280;65519;53.230;10.390;2023-02-03T09:03:56;100954.66;;;7.40;84.12
76627;BME280;65519;53.230;10.390;2023-02-03T09:06:21;100957.88;;;7.25;85.05
76627;BME280;65519;53.230;10.390;2023-02-03T09:08:47;100962.81;;;7.28;84.83
76627;BME280;65519;53.230;10.390;2023-02-03T09:11:15;100960.63;;;7.14;83.58
76627;BME280;65519;53.230;10.390;2023-02-03T09:13:41;100971.22;;;7.15;82.41
76627;BME280;65519;53.230;10.390;2023-02-03T09:16:14;100958.41;;;7.11;82.74
76627;BME280;65519;53.230;10.390;2023-02-03T09:18:43;100948.03;;;7.08;81.03
76627;BME280;65519;53.230;10.390;2023-02-03T09:21:10;100952.97;;;7.11;81.76
76627;BME280;65519;53.230;10.390;2023-02-03T09:23:35;100959.00;;;7.13;80.69
76627;BME280;65519;53.230;10.390;2023-02-03T09:26:08;100945.63;;;7.23;81.16
76627;BME280;65519;53.230;10.390;2023-02-03T09:28:34;100940.06;;;7.29;79.69
76627;BME280;65519;53.230;10.390;2023-02-03T09:31:02;100912.56;;;7.38;78.48
76627;BME280;65519;53.230;10.390;2023-02-03T09:33:28;100951.16;;;7.28;79.54
76627;BME280;65519;53.230;10.390;2023-02-03T09:35:54;100957.44;;;7.17;77.98
76627;BME280;65519;53.230;10.390;2023-02-03T09:38:20;100949.09;;;7.07;79.99
76627;BME280;65519;53.230;10.390;2023-02-03T09:40:50;100934.72;;;7.06;78.48
76627;BME280;65519;53.230;10.390;2023-02-03T09:43:29;100958.28;;;7.06;79.00
76627;BME280;65519;53.230;10.390;2023-02-03T09:46:02;100950.16;;;7.06;79.18
76627;BME280;65519;53.230;10.390;2023-02-03T09:48:36;100967.25;;;7.06;79.83
76627;BME280;65519;53.230;10.390;2023-02-03T09:51:05;100966.63;;;7.16;80.00
76627;BME280;65519;53.230;10.390;2023-02-03T09:53:44;100973.38;;;7.13;80.17
76627;BME280;65519;53.230;10.390;2023-02-03T09:56:24;100977.59;;;7.09;81.29
76627;BME280;65519;53.230;10.390;2023-02-03T09:58:51;100985.84;;;7.14;80.38
76627;BME280;65519;53.230;10.390;2023-02-03T10:01:17;100999.38;;;7.26;81.26
76627;BME280;65519;53.230;10.390;2023-02-03T10:06:35;100992.53;;;7.35;81.02
76627;BME280;65519;53.230;10.390;2023-02-03T10:20:07;101026.31;;;7.56;77.86
76627;BME280;65519;53.230;10.390;2023-02-03T10:22:40;101016.94;;;7.63;76.33
76627;BME280;65519;53.230;10.390;2023-02-03T10:27:39;101006.53;;;7.72;76.39
76627;BME280;65519;53.230;10.390;2023-02-03T10:33:09;101005.66;;;7.83;74.48
76627;BME280;65519;53.230;10.390;2023-02-03T10:35:49;101021.13;;;7.83;74.81
76627;BME280;65519;53.230;10.390;2023-02-03T10:41:06;101033.03;;;7.82;75.11
76627;BME280;65519;53.230;10.390;2023-02-03T10:43:32;101049.44;;;7.87;75.78
76627;BME280;65519;53.230;10.390;2023-02-03T10:46:34;101052.03;;;7.82;75.49
76627;BME280;65519;53.230;10.390;2023-02-03T10:49:00;101045.91;;;7.86;75.60
76627;BME280;65519;53.230;10.390;2023-02-03T10:51:35;101059.94;;;7.83;74.57
76627;BME280;65519;53.230;10.390;2023-02-03T10:54:00;101068.66;;;7.85;73.86
76627;BME280;65519;53.230;10.390;2023-02-03T10:56:29;101054.03;;;7.86;73.93
76627;BME280;65519;53.230;10.390;2023-02-03T10:58:58;101074.69;;;7.87;73.69
76627;BME280;65519;53.230;10.390;2023-02-03T11:01:44;101051.22;;;7.81;74.03
76627;BME280;65519;53.230;10.390;2023-02-03T11:04:40;101084.28;;;7.78;72.03
76627;BME280;65519;53.230;10.390;2023-02-03T11:07:23;101063.81;;;7.87;72.41
76627;BME280;65519;53.230;10.390;2023-02-03T11:09:48;101084.94;;;7.85;71.76
76627;BME280;65519;53.230;10.390;2023-02-03T11:12:18;101062.50;;;7.90;71.58
76627;BME280;65519;53.230;10.390;2023-02-03T11:17:25;101032.75;;;8.12;69.21
76627;BME280;65519;53.230;10.390;2023-02-03T11:19:53;101074.19;;;8.19;70.05
76627;BME280;65519;53.230;10.390;2023-02-03T11:24:54;101087.84;;;8.24;69.05
76627;BME280;65519;53.230;10.390;2023-02-03T11:27:20;101062.34;;;8.25;69.62
76627;BME280;65519;53.230;10.390;2023-02-03T11:29:49;101083.69;;;8.33;69.08
76627;BME280;65519;53.230;10.390;2023-02-03T11:32:32;101056.97;;;8.13;68.46
76627;BME280;65519;53.230;10.390;2023-02-03T11:35:02;101083.97;;;8.48;69.61
76627;BME280;65519;53.230;10.390;2023-02-03T11:37:39;101047.34;;;8.51;68.37
76627;BME280;65519;53.230;10.390;2023-02-03T11:42:32;101076.00;;;8.41;67.58
76627;BME280;65519;53.230;10.390;2023-02-03T11:45:25;101080.28;;;8.26;67.79
76627;BME280;65519;53.230;10.390;2023-02-03T11:47:55;101078.56;;;8.20;67.01
76627;BME280;65519;53.230;10.390;2023-02-03T11:53:16;101061.97;;;8.33;66.96
76627;BME280;65519;53.230;10.390;2023-02-03T11:58:47;101093.88;;;8.54;66.32
76627;BME280;65519;53.230;10.390;2023-02-03T12:12:30;101110.72;;;8.39;66.66
76627;BME280;65519;53.230;10.390;2023-02-03T12:30:20;101152.78;;;8.37;65.83
76627;BME280;65519;53.230;10.390;2023-02-03T12:32:53;101159.50;;;8.34;65.98
76627;BME280;65519;53.230;10.390;2023-02-03T12:35:23;101141.44;;;8.28;66.86
76627;BME280;65519;53.230;10.390;2023-02-03T12:38:12;101160.03;;;8.20;65.45
76627;BME280;65519;53.230;10.390;2023-02-03T12:51:38;101171.13;;;8.18;66.17
76627;BME280;65519;53.230;10.390;2023-02-03T12:57:23;101157.78;;;8.17;66.89
76627;BME280;65519;53.230;10.390;2023-02-03T13:03:12;101140.22;;;8.07;65.61
76627;BME280;65519;53.230;10.390;2023-02-03T13:08:38;101165.81;;;8.12;67.69
76627;BME280;65519;53.230;10.390;2023-02-03T13:11:44;101166.66;;;8.12;66.45
76627;BME280;65519;53.230;10.390;2023-02-03T13:19:54;101182.94;;;8.12;66.66
76627;BME280;65519;53.230;10.390;2023-02-03T13:22:22;101177.38;;;8.19;65.51
76627;BME280;65519;53.230;10.390;2023-02-03T13:24:54;101182.59;;;8.20;65.30
76627;BME280;65519;53.230;10.390;2023-02-03T13:43:53;101201.72;;;8.14;64.62
76627;BME280;65519;53.230;10.390;2023-02-03T13:46:27;101192.66;;;8.08;65.32
76627;BME280;65519;53.230;10.390;2023-02-03T13:48:57;101206.56;;;8.12;64.99
76627;BME280;65519;53.230;10.390;2023-02-03T13:51:26;101206.00;;;8.10;64.63
76627;BME280;65519;53.230;10.390;2023-02-03T13:54:00;101201.91;;;8.24;66.21
76627;BME280;65519;53.230;10.390;2023-02-03T13:56:27;101208.72;;;9.62;64.56
76627;BME280;65519;53.230;10.390;2023-02-03T13:59:05;101225.44;;;9.70;60.98
76627;BME280;65519;53.230;10.390;2023-02-03T14:01:44;101215.84;;;9.29;60.86
76627;BME280;65519;53.230;10.390;2023-02-03T14:22:56;101229.88;;;7.84;66.24
76627;BME280;65519;53.230;10.390;2023-02-03T14:25:22;101235.06;;;7.74;65.80
76627;BME280;65519;53.230;10.390;2023-02-03T14:27:58;101237.78;;;7.74;66.37
76627;BME280;65519;53.230;10.390;2023-02-03T14:30:25;101224.09;;;7.69;65.90
76627;BME280;65519;53.230;10.390;2023-02-03T14:32:54;101243.22;;;7.74;65.97
76627;BME280;65519;53.230;10.390;2023-02-03T14:35:38;101236.00;;;7.68;65.48
76627;BME280;65519;53.230;10.390;2023-02-03T14:38:11;101236.00;;;7.68;65.46
76627;BME280;65519;53.230;10.390;2023-02-03T14:41:17;101239.22;;;7.65;66.20
76627;BME280;65519;53.230;10.390;2023-02-03T14:43:43;101261.50;;;7.67;66.24
76627;BME280;65519;53.230;10.390;2023-02-03T14:54:47;101257.59;;;7.63;66.95
76627;BME280;65519;53.230;10.390;2023-02-03T15:02:26;101265.50;;;7.53;68.10
76627;BME280;65519;53.230;10.390;2023-02-03T15:07:40;101274.72;;;7.52;68.35
76627;BME280;65519;53.230;10.390;2023-02-03T15:13:03;101287.44;;;7.51;67.98
76627;BME280;65519;53.230;10.390;2023-02-03T15:15:31;101278.47;;;7.51;68.55
76627;BME280;65519;53.230;10.390;2023-02-03T15:18:11;101290.72;;;7.42;68.10
76627;BME280;65519;53.230;10.390;2023-02-03T15:20:45;101272.94;;;7.46;68.17
76627;BME280;65519;53.230;10.390;2023-02-03T15:23:21;101284.75;;;7.75;69.77
76627;BME280;65519;53.230;10.390;2023-02-03T15:28:23;101284.84;;;7.68;67.80
76627;BME280;65519;53.230;10.390;2023-02-03T15:31:04;101299.72;;;7.54;68.71
76627;BME280;65519;53.230;10.390;2023-02-03T15:33:32;101304.28;;;7.42;68.98
76627;BME280;65519;53.230;10.390;2023-02-03T15:36:19;101303.31;;;7.36;70.19
76627;BME280;65519;53.230;10.390;2023-02-03T15:41:50;101299.94;;;7.41;70.31
76627;BME280;65519;53.230;10.390;2023-02-03T15:44:47;101321.03;;;7.39;70.05
76627;BME280;65519;53.230;10.390;2023-02-03T15:47:24;101317.41;;;7.45;69.58
76627;BME280;65519;53.230;10.390;2023-02-03T15:50:01;101301.94;;;7.45;69.92
76627;BME280;65519;53.230;10.390;2023-02-03T15:52:30;101311.28;;;7.61;70.89
76627;BME280;65519;53.230;10.390;2023-02-03T15:55:17;101302.09;;;7.85;70.08